createdAt,value
2022-08-11T00:00:09.606Z,51.18
2022-08-11T00:02:56.758Z,51.38
2022-08-11T00:05:23.636Z,52.38
2022-08-11T00:07:54.676Z,52.99
2022-08-11T00:10:24.197Z,52.63
2022-08-11T00:12:56.786Z,52.54
2022-08-11T00:15:25.942Z,52.06
2022-08-11T00:18:01.142Z,52.51
2022-08-11T00:20:32.808Z,52.66
2022-08-11T00:23:07.724Z,53.94
2022-08-11T00:25:48.425Z,54.18
2022-08-11T00:28:33.232Z,53.94
2022-08-11T00:31:05.540Z,53.07
2022-08-11T00:33:44.605Z,54.18
2022-08-11T00:36:15.805Z,52.73
2022-08-11T00:38:45.630Z,55.09
2022-08-11T00:41:15.199Z,55.23
2022-08-11T00:44:02.293Z,54.44
2022-08-11T00:46:46.577Z,54.79
2022-08-11T00:49:55.294Z,55.30
2022-08-11T00:52:33.176Z,55.96
2022-08-11T00:55:27.528Z,55.57
2022-08-11T00:58:26.944Z,55.05
2022-08-11T01:01:09.704Z,55.30
2022-08-11T01:04:14.187Z,55.17
2022-08-11T01:07:08.702Z,54.76
2022-08-11T01:09:53.738Z,54.98
2022-08-11T01:12:29.524Z,55.11
2022-08-11T01:15:24.205Z,54.94
2022-08-11T01:18:20.296Z,55.20
2022-08-11T01:21:25.571Z,55.78
2022-08-11T01:24:16.227Z,55.90
2022-08-11T01:27:05.032Z,55.45
2022-08-11T01:30:20.104Z,55.56
2022-08-11T01:33:24.711Z,56.05
2022-08-11T01:36:03.367Z,55.56
2022-08-11T01:38:39.272Z,56.12
2022-08-11T01:41:24.131Z,55.68
2022-08-11T01:44:21.968Z,56.65
2022-08-11T01:47:52.500Z,57.10
2022-08-11T01:50:48.048Z,56.53
2022-08-11T01:53:33.736Z,56.52
2022-08-11T01:56:28.641Z,55.49
2022-08-11T01:59:14.928Z,56.05
2022-08-11T02:02:21.684Z,56.88
2022-08-11T02:05:14.266Z,56.88
2022-08-11T02:07:55.589Z,59.06
2022-08-11T02:10:59.572Z,58.93
2022-08-11T02:13:40.293Z,58.59
2022-08-11T02:16:31.204Z,57.07
2022-08-11T02:19:35.476Z,57.68
2022-08-11T02:22:26.768Z,58.27
2022-08-11T02:25:02.496Z,58.40
2022-08-11T02:27:41.569Z,60.05
2022-08-11T02:30:14.525Z,60.97
2022-08-11T02:33:20.116Z,58.91
2022-08-11T02:36:04.011Z,58.68
2022-08-11T02:38:35.730Z,60.00
2022-08-11T02:41:31.531Z,60.82
2022-08-11T02:44:36.815Z,62.49
2022-08-11T02:47:28.820Z,60.51
2022-08-11T02:50:12.092Z,62.12
2022-08-11T02:53:03.468Z,61.46
2022-08-11T02:55:57.895Z,59.79
2022-08-11T02:58:41.678Z,59.67
2022-08-11T03:01:27.885Z,60.49
2022-08-11T03:04:11.133Z,59.55
2022-08-11T03:07:03.513Z,59.97
2022-08-11T03:09:38.032Z,60.69
2022-08-11T03:12:30.635Z,60.51
2022-08-11T03:15:31.164Z,60.93
2022-08-11T03:18:15.071Z,59.87
2022-08-11T03:21:00.438Z,61.09
2022-08-11T03:23:39.053Z,60.50
2022-08-11T03:26:23.067Z,58.92
2022-08-11T03:29:08.944Z,60.30
2022-08-11T03:31:46.808Z,60.20
2022-08-11T03:34:23.119Z,59.55
2022-08-11T03:37:17.258Z,60.25
2022-08-11T03:39:56.244Z,61.00
2022-08-11T03:42:45.605Z,59.95
2022-08-11T03:45:31.024Z,61.26
2022-08-11T03:48:18.813Z,60.46
2022-08-11T03:51:12.480Z,60.14
2022-08-11T03:54:10.056Z,60.07
2022-08-11T03:56:58.569Z,60.18
2022-08-11T03:59:53.616Z,60.45
2022-08-11T04:02:57.448Z,59.79
2022-08-11T04:05:39.711Z,60.60
2022-08-11T04:08:39.197Z,60.81
2022-08-11T04:11:29.065Z,60.62
2022-08-11T04:14:32.087Z,60.76
2022-08-11T04:17:23.473Z,60.78
2022-08-11T04:20:18.941Z,60.23
2022-08-11T04:23:07.610Z,60.64
2022-08-11T04:25:59.909Z,59.86
2022-08-11T04:29:02.328Z,60.75
2022-08-11T04:31:51.221Z,59.76
2022-08-11T04:34:36.607Z,59.98
2022-08-11T04:37:34.337Z,59.61
2022-08-11T04:40:28.733Z,60.04
2022-08-11T04:43:23.526Z,60.46
2022-08-11T04:46:12.311Z,59.41
2022-08-11T04:49:24.926Z,59.80
2022-08-11T04:52:37.846Z,58.76
2022-08-11T04:55:44.756Z,58.26
2022-08-11T04:59:09.675Z,58.51
2022-08-11T05:01:55.095Z,58.41
2022-08-11T05:05:08.268Z,57.19
2022-08-11T05:07:58.060Z,56.78
2022-08-11T05:10:43.571Z,57.34
2022-08-11T05:13:30.647Z,57.42
2022-08-11T05:16:20.584Z,56.40
2022-08-11T05:19:12.142Z,54.80
2022-08-11T05:22:06.705Z,55.50
2022-08-11T05:25:14.236Z,55.39
2022-08-11T05:28:33.847Z,55.23
2022-08-11T05:31:26.310Z,54.74
2022-08-11T05:34:18.327Z,53.03
2022-08-11T05:36:50.689Z,53.70
2022-08-11T05:39:41.416Z,53.26
2022-08-11T05:42:30.827Z,52.88
2022-08-11T05:45:25.407Z,52.37
2022-08-11T05:48:14.278Z,52.04
2022-08-11T05:51:01.806Z,51.51
2022-08-11T05:54:28.378Z,50.59
2022-08-11T05:56:59.879Z,49.99
2022-08-11T05:59:28.786Z,50.57
2022-08-11T06:02:02.769Z,50.54
2022-08-11T06:04:30.494Z,49.31
2022-08-11T06:07:10.121Z,49.19
2022-08-11T06:09:44.322Z,48.19
2022-08-11T06:12:32.235Z,48.71
2022-08-11T06:15:05.896Z,48.85
2022-08-11T06:17:38.491Z,48.79
2022-08-11T06:20:12.403Z,49.06
2022-08-11T06:22:41.793Z,48.26
2022-08-11T06:25:10.735Z,48.28
2022-08-11T06:27:40.761Z,48.50
2022-08-11T06:30:13.584Z,46.77
2022-08-11T06:32:45.729Z,47.76
2022-08-11T06:35:34.845Z,46.95
2022-08-11T06:38:28.110Z,47.13
2022-08-11T06:41:19.710Z,46.91
2022-08-11T06:44:11.921Z,47.81
2022-08-11T06:46:51.403Z,47.27
2022-08-11T06:49:40.838Z,47.88
2022-08-11T06:52:34.903Z,47.15
2022-08-11T06:55:06.581Z,47.11
2022-08-11T06:57:54.478Z,47.01
2022-08-11T07:00:28.183Z,44.40
2022-08-11T07:03:03.998Z,45.70
2022-08-11T07:05:30.921Z,45.44
2022-08-11T07:08:50.164Z,46.16
2022-08-11T07:12:03.163Z,45.93
2022-08-11T07:14:50.122Z,45.52
2022-08-11T07:17:21.870Z,44.34
2022-08-11T07:20:12.788Z,44.04
2022-08-11T07:23:01.961Z,44.44
2022-08-11T07:25:50.177Z,45.24
2022-08-11T07:28:45.203Z,44.38
2022-08-11T07:31:17.689Z,44.56
2022-08-11T07:34:07.958Z,44.27
2022-08-11T07:36:42.881Z,43.30
2022-08-11T07:39:20.175Z,44.50
2022-08-11T07:41:49.100Z,45.30
2022-08-11T07:44:17.188Z,42.77
2022-08-11T07:47:05.881Z,42.43
2022-08-11T07:49:55.781Z,43.64
2022-08-11T07:52:33.758Z,41.69
2022-08-11T07:55:02.606Z,41.56
2022-08-11T07:58:14.017Z,42.18
2022-08-11T08:01:10.658Z,41.83
2022-08-11T08:04:03.671Z,42.05
2022-08-11T08:06:52.472Z,42.60
2022-08-11T08:09:39.855Z,42.53
2022-08-11T08:12:27.638Z,41.86
2022-08-11T08:15:15.181Z,41.72
2022-08-11T08:18:09.217Z,40.81
2022-08-11T08:20:47.012Z,41.10
2022-08-11T08:23:14.981Z,40.64
2022-08-11T08:25:45.051Z,40.46
2022-08-11T08:28:16.444Z,41.31
2022-08-11T08:30:48.062Z,40.06
2022-08-11T08:33:19.422Z,39.35
2022-08-11T08:35:54.731Z,39.19
2022-08-11T08:38:23.356Z,40.78
2022-08-11T08:40:56.270Z,40.64
2022-08-11T08:43:24.522Z,36.53
2022-08-11T08:45:55.814Z,35.91
2022-08-11T08:48:26.137Z,38.30
2022-08-11T08:51:21.963Z,34.24
2022-08-11T08:53:56.454Z,34.71
2022-08-11T08:56:28.412Z,35.91
2022-08-11T08:58:59.427Z,34.10
2022-08-11T09:01:31.843Z,34.75
2022-08-11T09:04:04.903Z,35.74
2022-08-11T09:06:43.027Z,35.28
2022-08-11T09:09:12.328Z,33.26
2022-08-11T09:11:51.130Z,34.14
2022-08-11T09:14:51.718Z,34.28
2022-08-11T09:17:20.203Z,32.80
2022-08-11T09:19:56.498Z,32.49
2022-08-11T09:22:45.580Z,29.90
2022-08-11T09:25:32.015Z,30.50
2022-08-11T09:28:00.143Z,32.34
2022-08-11T09:30:28.269Z,30.88
2022-08-11T09:33:00.459Z,31.97
2022-08-11T09:35:28.768Z,29.84
2022-08-11T09:38:15.705Z,29.65
2022-08-11T09:40:45.556Z,29.89
2022-08-11T09:43:38.990Z,31.87
2022-08-11T09:46:07.308Z,30.53
2022-08-11T09:48:44.572Z,32.63
2022-08-11T09:51:12.731Z,33.35
2022-08-11T09:53:47.085Z,33.90
2022-08-11T09:56:52.398Z,34.23
2022-08-11T09:59:21.583Z,32.04
2022-08-11T10:01:57.392Z,32.33
2022-08-11T10:04:35.805Z,32.27
2022-08-11T10:07:06.931Z,32.77
2022-08-11T10:09:36.786Z,31.77
2022-08-11T10:12:11.156Z,33.37
2022-08-11T10:15:02.457Z,31.67
2022-08-11T10:17:33.117Z,33.06
2022-08-11T10:20:05.947Z,31.35
2022-08-11T10:22:54.206Z,30.62
2022-08-11T10:25:40.696Z,32.54
2022-08-11T10:28:29.043Z,29.95
2022-08-11T10:31:16.483Z,33.05
2022-08-11T10:34:00.586Z,31.83
2022-08-11T10:36:31.213Z,32.69
2022-08-11T10:39:00.642Z,33.40
2022-08-11T10:42:08.240Z,35.08
2022-08-11T10:44:38.778Z,35.48
2022-08-11T10:47:25.439Z,32.67
2022-08-11T10:50:13.621Z,32.45
2022-08-11T10:52:59.658Z,32.15
2022-08-11T10:55:46.852Z,30.68
2022-08-11T10:58:33.354Z,30.27
2022-08-11T11:01:01.370Z,31.76
2022-08-11T11:03:31.218Z,31.98
2022-08-11T11:06:29.136Z,32.60
2022-08-11T11:09:04.545Z,32.29
2022-08-11T11:11:54.685Z,31.71
2022-08-11T11:14:46.786Z,30.88
2022-08-11T11:17:47.407Z,29.38
2022-08-11T11:20:36.612Z,30.71
2022-08-11T11:23:10.129Z,29.56
2022-08-11T11:26:10.124Z,29.23
2022-08-11T11:28:52.107Z,28.99
2022-08-11T11:31:28.483Z,30.16
2022-08-11T11:34:13.183Z,29.05
2022-08-11T11:36:50.604Z,30.09
2022-08-11T11:39:20.585Z,30.22
2022-08-11T11:41:49.777Z,31.25
2022-08-11T11:44:17.677Z,29.54
2022-08-11T11:46:45.459Z,31.43
2022-08-11T11:49:17.167Z,32.17
2022-08-11T11:51:50.330Z,31.25
2022-08-11T11:54:22.506Z,31.63
2022-08-11T11:56:53.210Z,31.00
2022-08-11T11:59:41.221Z,31.93
2022-08-11T12:02:12.196Z,29.97
2022-08-11T12:04:45.752Z,29.29
2022-08-11T12:07:31.130Z,27.70
2022-08-11T12:09:59.027Z,28.13
2022-08-11T12:12:45.098Z,27.21
2022-08-11T12:15:13.179Z,25.78
2022-08-11T12:17:40.575Z,26.83
2022-08-11T12:20:33.269Z,26.27
2022-08-11T12:23:16.187Z,27.81
2022-08-11T12:26:25.856Z,29.18
2022-08-11T12:28:51.496Z,28.66
2022-08-11T12:31:22.127Z,29.10
2022-08-11T12:33:50.364Z,29.88
2022-08-11T12:36:19.297Z,29.36
2022-08-11T12:38:51.507Z,27.55
2022-08-11T12:41:39.991Z,28.03
2022-08-11T12:44:28.047Z,27.79
2022-08-11T12:58:32.723Z,28.21
2022-08-11T13:01:18.377Z,28.75
2022-08-11T13:04:03.790Z,27.54
2022-08-11T13:06:31.428Z,28.55
2022-08-11T13:09:01.559Z,28.43
2022-08-11T13:11:56.910Z,29.23
2022-08-11T13:14:27.369Z,28.84
2022-08-11T13:17:12.829Z,29.92
2022-08-11T13:19:47.441Z,32.21
2022-08-11T13:22:18.586Z,29.30
2022-08-11T13:24:46.363Z,28.84
2022-08-11T13:27:14.078Z,29.33
2022-08-11T13:29:46.769Z,30.91
2022-08-11T13:32:16.030Z,30.15
2022-08-11T13:34:43.685Z,33.22
2022-08-11T13:37:15.237Z,31.38
2022-08-11T13:39:47.312Z,32.57
2022-08-11T13:42:16.588Z,31.29
2022-08-11T13:44:43.900Z,31.51
2022-08-11T13:47:13.781Z,31.58
2022-08-11T13:49:42.581Z,31.91
2022-08-11T13:52:16.533Z,29.94
2022-08-11T13:54:48.098Z,31.35
2022-08-11T13:58:08.104Z,30.53
2022-08-11T14:00:24.980Z,31.51
2022-08-11T14:02:56.857Z,30.43
2022-08-11T14:05:31.156Z,30.15
2022-08-11T14:08:31.761Z,30.63
2022-08-11T14:12:22.030Z,29.80
2022-08-11T14:14:13.365Z,29.67
2022-08-11T14:16:43.935Z,29.63
2022-08-11T14:19:14.300Z,28.48
2022-08-11T14:22:07.337Z,28.63
2022-08-11T14:24:41.413Z,28.93
2022-08-11T14:28:30.354Z,28.79
2022-08-11T14:29:59.281Z,29.53
2022-08-11T14:32:26.886Z,30.29
2022-08-11T14:34:55.164Z,30.99
2022-08-11T14:37:24.435Z,30.21
2022-08-11T14:40:02.941Z,28.74
2022-08-11T14:42:50.855Z,28.68
2022-08-11T14:45:58.487Z,28.94
2022-08-11T14:48:24.293Z,28.84
2022-08-11T14:50:51.704Z,29.30
2022-08-11T14:53:22.645Z,27.08
2022-08-11T14:56:09.851Z,27.71
2022-08-11T14:58:37.280Z,27.78
2022-08-11T15:01:24.939Z,28.57
2022-08-11T15:04:22.410Z,29.11
2022-08-11T15:06:39.513Z,30.39
2022-08-11T15:09:09.035Z,29.41
2022-08-11T15:11:55.169Z,30.64
2022-08-11T15:14:41.417Z,30.13
2022-08-11T15:17:13.025Z,30.16
2022-08-11T15:20:01.872Z,30.31
2022-08-11T15:22:47.684Z,30.97
2022-08-11T15:25:15.090Z,30.34
2022-08-11T15:28:02.402Z,30.28
2022-08-11T15:30:48.809Z,29.87
2022-08-11T15:33:37.740Z,30.59
2022-08-11T15:36:27.669Z,30.01
2022-08-11T15:38:59.654Z,30.55
2022-08-11T15:42:02.728Z,30.69
2022-08-11T15:45:02.823Z,30.99
2022-08-11T15:47:37.826Z,31.13
2022-08-11T15:50:11.213Z,32.48
2022-08-11T15:52:47.782Z,32.10
2022-08-11T15:55:16.299Z,33.21
2022-08-11T15:58:05.235Z,33.90
2022-08-11T16:01:02.140Z,34.10
2022-08-11T16:04:09.205Z,35.12
2022-08-11T16:06:47.879Z,35.55
2022-08-11T16:09:29.714Z,35.59
2022-08-11T16:12:19.282Z,35.95
2022-08-11T16:15:09.283Z,36.10
2022-08-11T16:17:42.204Z,35.80
2022-08-11T16:20:09.759Z,35.82
2022-08-11T16:22:55.203Z,35.59
2022-08-11T16:27:04.603Z,36.48
2022-08-11T16:28:18.220Z,35.79
2022-08-11T16:30:46.526Z,36.14
2022-08-11T16:33:48.954Z,36.07
2022-08-11T16:36:23.388Z,35.88
2022-08-11T16:38:50.852Z,36.00
2022-08-11T16:41:41.250Z,36.37
2022-08-11T16:44:32.896Z,36.22
2022-08-11T16:47:12.170Z,36.18
2022-08-11T16:49:52.320Z,36.82
2022-08-11T16:52:22.258Z,36.51
2022-08-11T16:54:49.260Z,37.06
2022-08-11T16:57:39.766Z,37.85
2022-08-11T17:00:12.488Z,36.80
2022-08-11T17:03:04.520Z,36.88
2022-08-11T17:05:54.399Z,36.89
2022-08-11T17:08:54.272Z,36.72
2022-08-11T17:11:49.754Z,37.54
2022-08-11T17:14:35.074Z,38.74
2022-08-11T17:17:06.243Z,39.10
2022-08-11T17:20:42.089Z,39.80
2022-08-11T17:22:46.898Z,40.50
2022-08-11T17:25:16.015Z,40.72
2022-08-11T17:27:44.466Z,41.11
2022-08-11T17:30:12.168Z,42.02
2022-08-11T17:33:05.672Z,42.29
2022-08-11T17:35:41.780Z,42.18
2022-08-11T17:38:22.852Z,42.33
2022-08-11T17:41:13.547Z,42.37
2022-08-11T17:44:09.822Z,42.75
2022-08-11T17:46:57.905Z,42.88
2022-08-11T17:49:28.416Z,42.91
2022-08-11T17:52:14.172Z,42.96
2022-08-11T17:55:00.551Z,43.14
2022-08-11T17:57:48.586Z,43.06
2022-08-11T18:00:16.920Z,42.85
2022-08-11T18:03:04.365Z,43.56
2022-08-11T18:05:34.199Z,43.65
2022-08-11T18:08:23.464Z,43.93
2022-08-11T18:11:09.301Z,44.10
2022-08-11T18:13:56.951Z,44.07
2022-08-11T18:16:42.806Z,44.65
2022-08-11T18:19:30.822Z,44.17
2022-08-11T18:22:23.993Z,44.83
2022-08-11T18:25:17.036Z,44.18
2022-08-11T18:28:05.571Z,44.29
2022-08-11T18:31:03.465Z,44.54
2022-08-11T18:34:13.581Z,44.35
2022-08-11T18:37:19.944Z,45.32
2022-08-11T18:40:17.447Z,45.21
2022-08-11T18:43:05.745Z,45.31
2022-08-11T18:45:56.458Z,45.07
2022-08-11T18:48:57.311Z,45.25
2022-08-11T18:51:44.544Z,45.67
2022-08-11T18:54:32.205Z,45.51
2022-08-11T18:57:22.106Z,45.11
2022-08-11T19:00:11.096Z,45.12
2022-08-11T19:02:58.643Z,44.87
2022-08-11T19:06:31.815Z,45.32
2022-08-11T19:09:05.460Z,45.02
2022-08-11T19:11:53.000Z,45.67
2022-08-11T19:14:40.421Z,45.20
2022-08-11T19:17:44.684Z,45.59
2022-08-11T19:20:38.136Z,45.68
2022-08-11T19:23:25.506Z,46.34
2022-08-11T19:26:12.460Z,46.10
2022-08-11T19:29:00.820Z,46.10
2022-08-11T19:31:48.142Z,45.82
2022-08-11T19:34:41.027Z,45.51
2022-08-11T19:37:28.495Z,45.59
2022-08-11T19:40:21.864Z,45.65
2022-08-11T19:43:11.219Z,45.86
2022-08-11T19:46:15.381Z,45.80
2022-08-11T19:49:02.320Z,45.27
2022-08-11T19:51:53.341Z,45.58
2022-08-11T19:54:43.222Z,45.75
2022-08-11T19:57:30.060Z,46.38
2022-08-11T20:00:17.133Z,46.26
2022-08-11T20:03:08.690Z,46.54
2022-08-11T20:05:55.704Z,47.15
2022-08-11T20:08:49.484Z,47.18
2022-08-11T20:11:38.898Z,47.22
2022-08-11T20:14:29.768Z,47.26
2022-08-11T20:17:16.520Z,47.87
2022-08-11T20:20:02.285Z,47.56
2022-08-11T20:22:49.414Z,47.57
2022-08-11T20:25:36.655Z,48.03
2022-08-11T20:28:24.151Z,48.36
2022-08-11T20:31:12.387Z,48.31
2022-08-11T20:33:59.681Z,48.58
2022-08-11T20:36:50.028Z,48.72
2022-08-11T20:39:41.319Z,49.26
2022-08-11T20:42:30.440Z,48.91
2022-08-11T20:45:23.328Z,50.43
2022-08-11T20:48:14.671Z,52.88
2022-08-11T20:54:13.391Z,51.83
2022-08-11T20:56:59.455Z,50.90
2022-08-11T20:59:49.362Z,51.25
2022-08-11T21:02:44.993Z,52.65
2022-08-11T21:06:09.964Z,54.08
2022-08-11T21:08:41.629Z,53.87
2022-08-11T21:11:29.149Z,54.20
2022-08-11T21:14:16.589Z,52.99
2022-08-11T21:17:26.999Z,52.60
2022-08-11T21:20:20.636Z,54.01
2022-08-11T21:23:23.621Z,53.59
2022-08-11T21:26:14.710Z,52.63
2022-08-11T21:29:01.819Z,53.24
2022-08-11T21:31:50.006Z,53.18
2022-08-11T21:34:38.758Z,52.81
2022-08-11T21:37:26.778Z,53.44
2022-08-11T21:40:17.097Z,53.13
2022-08-11T21:43:05.742Z,52.71
2022-08-11T21:45:54.218Z,52.60
2022-08-11T21:48:41.724Z,52.68
2022-08-11T21:51:27.831Z,52.94
2022-08-11T21:54:15.897Z,53.69
2022-08-11T21:57:04.065Z,53.81
2022-08-11T22:00:13.609Z,53.04
2022-08-11T22:03:00.799Z,53.21
2022-08-11T22:05:51.722Z,53.36
2022-08-11T22:08:38.110Z,53.50
2022-08-11T22:11:32.120Z,53.69
2022-08-11T22:14:19.623Z,53.08
2022-08-11T22:17:04.975Z,53.43
2022-08-11T22:19:52.606Z,52.75
2022-08-11T22:22:49.074Z,52.98
2022-08-11T22:25:39.126Z,52.43
2022-08-11T22:28:35.235Z,51.99
2022-08-11T22:31:21.532Z,52.67
2022-08-11T22:34:06.967Z,52.08
2022-08-11T22:36:54.018Z,53.28
2022-08-11T22:39:41.444Z,52.59
2022-08-11T22:42:33.414Z,52.49
2022-08-11T22:45:20.008Z,52.40
2022-08-11T22:48:07.935Z,52.79
2022-08-11T22:50:55.698Z,52.92
2022-08-11T22:53:54.969Z,52.17
2022-08-11T22:56:47.175Z,52.37
2022-08-11T22:59:34.625Z,52.93
2022-08-11T23:02:24.938Z,52.92
2022-08-11T23:05:11.444Z,52.27
2022-08-11T23:07:58.198Z,52.60
2022-08-11T23:10:45.616Z,52.29
2022-08-11T23:13:32.241Z,52.42
2022-08-11T23:16:19.206Z,52.23
2022-08-11T23:19:06.987Z,52.29
2022-08-11T23:21:53.474Z,53.07
2022-08-11T23:24:40.513Z,52.19
2022-08-11T23:27:27.867Z,52.75
2022-08-11T23:30:17.205Z,53.85
2022-08-11T23:33:09.924Z,53.71
2022-08-11T23:36:02.270Z,52.71
2022-08-11T23:38:51.296Z,54.01
2022-08-11T23:41:36.669Z,53.98
2022-08-11T23:44:24.970Z,53.86
2022-08-11T23:47:14.291Z,53.21
2022-08-11T23:50:00.573Z,53.26
2022-08-11T23:52:48.131Z,53.72
2022-08-11T23:55:33.921Z,53.31
2022-08-11T23:58:19.755Z,53.41
